Tosei — JK5053 — position and weather

sailwx.info

Track history (hours):
 
Tides and Currents Weather Stations Pressure Air Temp Water Temp Dewpoint Dewpoint Depression Visibility Wind Speed Wind Dir Waves Ship Positions

Tosei

Last reported at 2017-Oct-19 23:22 UTC. Time now 2017-Oct-19 23:32 UTC.
Position N 34°37' E 135°20'.

Length 85 m; draft 4 m.

MMSI: 431400992.

Date/timePositionNaut miles runAvg speedWind from/ knotsBaromVisibWave heightAir tempDewpointWater temp
2017-Oct-19 23:22N 34°37' E 135°20'0 0.0
2017-Oct-19 22:46N 34°37' E 135°20'0 0.0
2017-Oct-19 22:28N 34°37' E 135°20'0 0.0
2017-Oct-19 21:58N 34°37' E 135°20'0 0.1
2017-Oct-19 21:28N 34°38' E 135°20'0 0.1
2017-Oct-19 20:46N 34°38' E 135°20'0 0.0
2017-Oct-19 20:28N 34°38' E 135°20'0 0.0
2017-Oct-19 19:58N 34°38' E 135°20'0 0.0
2017-Oct-19 19:28N 34°38' E 135°20'0 0.1
2017-Oct-19 18:58N 34°38' E 135°20'0 0.1
2017-Oct-19 18:30N 34°38' E 135°20'2 3.5
2017-Oct-19 18:00N 34°36' E 135°19'713.4
2017-Oct-19 17:30N 34°35' E 135°11'815.1
2017-Oct-19 17:00N 34°37' E 135°02'  
2017-Oct-13 12:37N 34°54' E 139°25'213.3
2017-Oct-13 12:26N 34°55' E 139°27'612.9
2017-Oct-13 12:00N 34°59' E 139°32'713.5
2017-Oct-13 11:30N 35°04' E 139°38'714.5
2017-Oct-13 11:01N 35°09' E 139°44'713.5
2017-Oct-13 10:30N 35°16' E 139°46'612.8
2017-Oct-13 10:00N 35°21' E 139°42'713.4
2017-Oct-13 09:30N 35°27' E 139°47'10 0.8
2017-Oct-12 21:20N 35°33' E 139°56'413.1
2017-Oct-12 21:00N 35°30' E 139°53'713.1
2017-Oct-12 20:30N 35°25' E 139°47'612.1
2017-Oct-12 20:01N 35°20' E 139°44'612.0
2017-Oct-12 19:31N 35°14' E 139°47'612.4
2017-Oct-12 19:00N 35°08' E 139°45'611.8
2017-Oct-12 18:31N 35°03' E 139°42'612.0
2017-Oct-12 18:01N 34°58' E 139°38'  
Track history (hours):
 
Tides and Currents Weather Stations Pressure Air Temp Water Temp Dewpoint Dewpoint Depression Visibility Wind Speed Wind Dir Waves Ship Positions

Tosei

Last reported at 2017-Oct-19 23:22 UTC. Time now 2017-Oct-19 23:32 UTC.
Position N 34°37' E 135°20'.

Length 85 m; draft 4 m.

MMSI: 431400992.

Date/timePositionNaut miles runAvg speedWind from/ knotsBaromVisibWave heightAir tempDewpointWater temp
2017-Oct-19 23:22N 34°37' E 135°20'0 0.0
2017-Oct-19 22:46N 34°37' E 135°20'0 0.0
2017-Oct-19 22:28N 34°37' E 135°20'0 0.0
2017-Oct-19 21:58N 34°37' E 135°20'0 0.1
2017-Oct-19 21:28N 34°38' E 135°20'0 0.1
2017-Oct-19 20:46N 34°38' E 135°20'0 0.0
2017-Oct-19 20:28N 34°38' E 135°20'0 0.0
2017-Oct-19 19:58N 34°38' E 135°20'0 0.0
2017-Oct-19 19:28N 34°38' E 135°20'0 0.1
2017-Oct-19 18:58N 34°38' E 135°20'0 0.1
2017-Oct-19 18:30N 34°38' E 135°20'2 3.5
2017-Oct-19 18:00N 34°36' E 135°19'713.4
2017-Oct-19 17:30N 34°35' E 135°11'815.1
2017-Oct-19 17:00N 34°37' E 135°02'  
2017-Oct-13 12:37N 34°54' E 139°25'213.3
2017-Oct-13 12:26N 34°55' E 139°27'612.9
2017-Oct-13 12:00N 34°59' E 139°32'713.5
2017-Oct-13 11:30N 35°04' E 139°38'714.5
2017-Oct-13 11:01N 35°09' E 139°44'713.5
2017-Oct-13 10:30N 35°16' E 139°46'612.8
2017-Oct-13 10:00N 35°21' E 139°42'713.4
2017-Oct-13 09:30N 35°27' E 139°47'10 0.8
2017-Oct-12 21:20N 35°33' E 139°56'413.1
2017-Oct-12 21:00N 35°30' E 139°53'713.1
2017-Oct-12 20:30N 35°25' E 139°47'612.1
2017-Oct-12 20:01N 35°20' E 139°44'612.0
2017-Oct-12 19:31N 35°14' E 139°47'612.4
2017-Oct-12 19:00N 35°08' E 139°45'611.8
2017-Oct-12 18:31N 35°03' E 139°42'612.0
2017-Oct-12 18:01N 34°58' E 139°38'  

Dump ship's entire track history